createdAt,value
2022-10-24T00:02:24.266Z,18.38
2022-10-24T00:04:50.788Z,18.53
2022-10-24T00:07:17.462Z,18.08
2022-10-24T00:09:43.936Z,18.19
2022-10-24T00:12:10.440Z,17.92
2022-10-24T00:14:36.930Z,18.68
2022-10-24T00:17:03.955Z,18.88
2022-10-24T00:19:30.550Z,18.50
2022-10-24T00:21:56.954Z,18.29
2022-10-24T00:24:25.204Z,18.18
2022-10-24T00:26:52.092Z,18.80
2022-10-24T00:29:18.864Z,18.78
2022-10-24T00:31:45.306Z,18.17
2022-10-24T00:34:11.858Z,18.68
2022-10-24T00:36:38.333Z,17.92
2022-10-24T00:39:04.788Z,17.88
2022-10-24T00:41:37.085Z,18.00
2022-10-24T00:44:17.555Z,18.38
2022-10-24T00:46:53.309Z,18.39
2022-10-24T00:49:24.877Z,17.90
2022-10-24T00:51:54.537Z,18.20
2022-10-24T00:54:21.454Z,18.17
2022-10-24T00:57:15.218Z,18.07
2022-10-24T00:59:43.446Z,18.25
2022-10-24T01:02:10.313Z,18.24
2022-10-24T01:04:36.958Z,18.80
2022-10-24T01:07:09.533Z,18.71
2022-10-24T01:10:08.794Z,18.53
2022-10-24T01:12:35.194Z,18.71
2022-10-24T01:15:23.919Z,18.37
2022-10-24T01:18:18.179Z,18.60
2022-10-24T01:21:13.413Z,18.84
2022-10-24T01:23:55.682Z,18.38
2022-10-24T01:26:44.489Z,18.42
2022-10-24T01:29:20.412Z,18.55
2022-10-24T01:31:51.134Z,18.08
2022-10-24T01:34:25.874Z,18.55
2022-10-24T01:37:01.951Z,18.53
2022-10-24T01:39:33.410Z,18.34
2022-10-24T01:42:01.153Z,18.27
2022-10-24T01:44:31.426Z,18.41
2022-10-24T01:47:04.096Z,18.33
2022-10-24T01:49:34.170Z,18.34
2022-10-24T01:52:03.379Z,18.73
2022-10-24T01:54:30.942Z,18.28
2022-10-24T01:56:58.141Z,18.93
2022-10-24T01:59:30.499Z,18.89
2022-10-24T02:02:12.446Z,18.60
2022-10-24T02:04:42.832Z,18.67
2022-10-24T02:07:10.113Z,18.54
2022-10-24T02:09:38.593Z,18.76
2022-10-24T02:12:07.847Z,18.48
2022-10-24T02:14:36.748Z,18.68
2022-10-24T02:17:03.622Z,18.45
2022-10-24T02:19:31.346Z,18.41
2022-10-24T02:22:21.066Z,18.81
2022-10-24T02:24:56.030Z,18.50
2022-10-24T02:27:30.013Z,18.43
2022-10-24T02:30:09.910Z,18.52
2022-10-24T02:32:42.569Z,18.87
2022-10-24T02:35:10.429Z,18.36
2022-10-24T02:37:40.957Z,18.59
2022-10-24T02:40:09.167Z,18.36
2022-10-24T02:42:37.043Z,18.45
2022-10-24T02:45:04.766Z,18.71
2022-10-24T02:47:31.543Z,18.25
2022-10-24T02:49:57.954Z,18.04
2022-10-24T02:52:24.696Z,18.42
2022-10-24T02:54:51.247Z,18.58
2022-10-24T02:57:17.763Z,18.48
2022-10-24T02:59:44.283Z,18.67
2022-10-24T03:02:10.794Z,18.42
2022-10-24T03:04:37.241Z,18.58
2022-10-24T03:07:03.678Z,18.53
2022-10-24T03:09:30.100Z,18.39
2022-10-24T03:11:56.513Z,18.71
2022-10-24T03:14:22.957Z,18.76
2022-10-24T03:16:49.507Z,18.97
2022-10-24T03:19:15.931Z,18.92
2022-10-24T03:21:42.465Z,19.13
2022-10-24T03:24:09.472Z,18.97
2022-10-24T03:26:35.951Z,19.06
2022-10-24T03:29:02.438Z,18.96
2022-10-24T03:31:30.693Z,18.87
2022-10-24T03:33:57.626Z,18.90
2022-10-24T03:36:24.411Z,18.81
2022-10-24T03:38:50.834Z,18.83
2022-10-24T03:41:17.383Z,18.76
2022-10-24T03:43:43.834Z,18.60
2022-10-24T03:46:10.344Z,18.49
2022-10-24T03:48:36.865Z,18.83
2022-10-24T03:51:03.459Z,18.97
2022-10-24T03:53:29.893Z,18.97
2022-10-24T03:55:57.340Z,18.88
2022-10-24T03:58:24.349Z,18.56
2022-10-24T04:00:51.031Z,18.95
2022-10-24T04:03:17.593Z,18.68
2022-10-24T04:05:44.094Z,18.73
2022-10-24T04:08:10.624Z,18.37
2022-10-24T04:10:37.088Z,18.98
2022-10-24T04:13:03.910Z,18.64
2022-10-24T04:15:31.100Z,18.28
2022-10-24T04:17:57.602Z,18.70
2022-10-24T04:20:24.118Z,18.42
2022-10-24T04:22:50.714Z,18.74
2022-10-24T04:25:17.732Z,18.46
2022-10-24T04:27:45.477Z,18.76
2022-10-24T04:30:16.588Z,18.45
2022-10-24T04:32:43.780Z,18.64
2022-10-24T04:35:10.434Z,18.49
2022-10-24T04:37:36.967Z,18.43
2022-10-24T04:40:04.196Z,19.01
2022-10-24T04:42:30.873Z,18.51
2022-10-24T04:44:57.442Z,18.94
2022-10-24T04:47:24.057Z,18.44
2022-10-24T04:49:50.521Z,18.57
2022-10-24T04:52:16.979Z,18.52
2022-10-24T04:54:43.477Z,18.77
2022-10-24T04:57:09.892Z,18.51
2022-10-24T04:59:36.345Z,18.70
2022-10-24T05:02:02.832Z,18.67
2022-10-24T05:04:29.442Z,18.65
2022-10-24T05:06:55.971Z,18.65
2022-10-24T05:09:22.447Z,18.78
2022-10-24T05:11:48.942Z,18.39
2022-10-24T05:14:15.425Z,18.40
2022-10-24T05:16:41.994Z,18.81
2022-10-24T05:19:08.451Z,18.66
2022-10-24T05:21:35.053Z,18.52
2022-10-24T05:24:01.495Z,18.10
2022-10-24T05:26:28.590Z,18.30
2022-10-24T05:28:55.160Z,18.84
2022-10-24T05:31:21.791Z,18.80
2022-10-24T05:33:48.284Z,18.90
2022-10-24T05:36:14.817Z,18.89
2022-10-24T05:38:41.325Z,18.64
2022-10-24T05:41:07.764Z,18.60
2022-10-24T05:43:34.267Z,18.64
2022-10-24T05:46:00.778Z,18.25
2022-10-24T05:48:27.257Z,18.42
2022-10-24T05:50:57.907Z,18.81
2022-10-24T05:53:25.919Z,18.46
2022-10-24T05:55:52.440Z,17.89
2022-10-24T05:58:21.292Z,18.62
2022-10-24T06:00:54.017Z,18.73
2022-10-24T06:03:20.981Z,18.73
2022-10-24T06:05:47.478Z,18.61
2022-10-24T06:08:13.965Z,17.94
2022-10-24T06:10:40.476Z,17.99
2022-10-24T06:13:07.180Z,18.21
2022-10-24T06:15:33.732Z,18.20
2022-10-24T06:18:00.527Z,18.43
2022-10-24T06:20:26.975Z,18.44
2022-10-24T06:22:53.466Z,18.54
2022-10-24T06:25:19.981Z,18.30
2022-10-24T06:27:46.522Z,18.34
2022-10-24T06:30:12.966Z,18.56
2022-10-24T06:32:43.554Z,18.50
2022-10-24T06:35:13.282Z,18.73
2022-10-24T06:37:41.789Z,18.84
2022-10-24T06:40:11.352Z,18.50
2022-10-24T06:42:37.829Z,18.38
2022-10-24T06:45:04.699Z,18.52
2022-10-24T06:47:32.104Z,18.59
2022-10-24T06:49:58.598Z,18.64
2022-10-24T06:52:25.083Z,18.47
2022-10-24T06:54:51.751Z,18.52
2022-10-24T06:57:18.233Z,18.81
2022-10-24T06:59:44.889Z,18.89
2022-10-24T07:02:15.963Z,18.76
2022-10-24T07:04:42.678Z,18.34
2022-10-24T07:07:15.003Z,18.87
2022-10-24T07:09:41.610Z,18.12
2022-10-24T07:12:08.353Z,18.73
2022-10-24T07:14:35.065Z,19.09
2022-10-24T07:17:01.542Z,19.01
2022-10-24T07:19:28.002Z,18.82
2022-10-24T07:21:54.610Z,18.62
2022-10-24T07:24:22.584Z,19.35
2022-10-24T07:26:49.042Z,18.99
2022-10-24T07:29:15.510Z,18.96
2022-10-24T07:31:41.930Z,18.83
2022-10-24T07:34:09.089Z,19.45
2022-10-24T07:36:40.104Z,18.96
2022-10-24T07:39:09.415Z,19.07
2022-10-24T07:41:37.916Z,19.36
2022-10-24T07:44:04.521Z,19.45
2022-10-24T07:46:31.422Z,20.13
2022-10-24T07:48:58.030Z,19.73
2022-10-24T07:51:27.952Z,19.96
2022-10-24T07:53:54.643Z,20.11
2022-10-24T07:56:22.072Z,20.80
2022-10-24T07:58:48.658Z,19.88
2022-10-24T08:01:20.862Z,21.15
2022-10-24T08:03:47.677Z,20.01
2022-10-24T08:06:17.674Z,21.12
2022-10-24T08:08:44.507Z,21.22
2022-10-24T08:11:21.888Z,21.58
2022-10-24T08:13:50.074Z,21.84
2022-10-24T08:16:18.756Z,21.62
2022-10-24T08:18:45.390Z,20.75
2022-10-24T08:21:14.621Z,20.99
2022-10-24T08:23:43.424Z,21.24
2022-10-24T08:26:13.714Z,21.04
2022-10-24T08:28:41.025Z,20.83
2022-10-24T08:31:10.823Z,20.72
2022-10-24T08:33:37.670Z,20.42
2022-10-24T08:36:07.552Z,20.39
2022-10-24T08:38:33.986Z,20.47
2022-10-24T08:41:00.600Z,21.15
2022-10-24T08:43:27.221Z,20.76
2022-10-24T08:46:12.024Z,20.42
2022-10-24T08:48:45.882Z,20.83
2022-10-24T08:51:25.883Z,20.26
2022-10-24T08:53:53.701Z,20.74
2022-10-24T08:56:20.806Z,21.02
2022-10-24T08:58:47.558Z,20.89
2022-10-24T09:01:32.005Z,21.34
2022-10-24T09:04:00.369Z,21.04
2022-10-24T09:06:29.284Z,21.39
2022-10-24T09:09:21.332Z,21.42
2022-10-24T09:11:56.296Z,20.96
2022-10-24T09:14:28.580Z,20.88
2022-10-24T09:16:59.387Z,21.24
2022-10-24T09:19:28.909Z,21.05
2022-10-24T09:21:56.998Z,20.12
2022-10-24T09:24:48.438Z,19.74
2022-10-24T09:27:18.246Z,20.11
2022-10-24T09:29:45.049Z,19.87
2022-10-24T09:32:17.450Z,19.75
2022-10-24T09:34:44.406Z,19.92
2022-10-24T09:37:32.491Z,20.13
2022-10-24T09:40:16.215Z,20.67
2022-10-24T09:42:54.850Z,20.49
2022-10-24T09:45:42.164Z,20.30
2022-10-24T09:48:19.547Z,19.67
2022-10-24T09:50:47.930Z,20.15
2022-10-24T09:53:22.714Z,20.33
2022-10-24T09:55:52.254Z,20.08
2022-10-24T09:58:21.364Z,19.73
2022-10-24T10:01:20.817Z,20.03
2022-10-24T10:04:02.831Z,20.04
2022-10-24T10:06:33.046Z,20.29
2022-10-24T10:08:59.793Z,19.89
2022-10-24T10:11:31.568Z,19.81
2022-10-24T10:14:01.479Z,20.16
2022-10-24T10:16:29.873Z,20.17
2022-10-24T10:19:17.504Z,20.08
2022-10-24T10:22:00.215Z,19.98
2022-10-24T10:24:32.611Z,19.81
2022-10-24T10:26:59.080Z,19.97
2022-10-24T10:29:25.692Z,20.18
2022-10-24T10:32:07.774Z,20.76
2022-10-24T10:34:47.514Z,20.51
2022-10-24T10:37:24.153Z,20.05
2022-10-24T10:39:50.573Z,20.11
2022-10-24T10:42:23.766Z,20.42
2022-10-24T10:44:56.448Z,21.34
2022-10-24T10:47:35.490Z,22.61
2022-10-24T10:50:15.437Z,22.88
2022-10-24T10:52:49.205Z,22.34
2022-10-24T10:55:21.782Z,21.56
2022-10-24T10:57:51.218Z,20.88
2022-10-24T11:00:23.283Z,21.03
2022-10-24T11:03:06.689Z,20.80
2022-10-24T11:05:36.126Z,21.15
2022-10-24T11:08:21.462Z,20.86
2022-10-24T11:10:53.261Z,20.57
2022-10-24T11:13:24.864Z,20.13
2022-10-24T11:15:55.156Z,20.78
2022-10-24T11:18:29.448Z,20.21
2022-10-24T11:21:09.118Z,20.25
2022-10-24T11:26:41.596Z,20.71
2022-10-24T11:29:31.593Z,20.68
2022-10-24T11:32:07.937Z,20.69
2022-10-24T11:34:45.740Z,20.59
2022-10-24T11:37:19.518Z,20.41
2022-10-24T11:39:57.879Z,20.53
2022-10-24T11:42:37.786Z,20.40
2022-10-24T11:45:14.916Z,20.07
2022-10-24T11:47:47.376Z,22.07
2022-10-24T11:50:25.600Z,24.54
2022-10-24T11:52:55.971Z,22.57
2022-10-24T11:55:37.177Z,21.76
2022-10-24T11:58:06.033Z,20.74
2022-10-24T12:00:55.711Z,21.31
2022-10-24T12:03:44.011Z,20.64
2022-10-24T12:06:19.012Z,20.41
2022-10-24T12:09:15.030Z,20.11
2022-10-24T12:12:21.677Z,20.29
2022-10-24T12:15:11.959Z,19.80
2022-10-24T12:17:41.392Z,19.91
2022-10-24T12:20:14.082Z,19.63
2022-10-24T12:22:43.385Z,19.83
2022-10-24T12:25:19.223Z,19.81
2022-10-24T12:27:53.154Z,20.01
2022-10-24T12:30:21.905Z,19.75
2022-10-24T12:32:50.068Z,20.08
2022-10-24T12:35:31.962Z,20.53
2022-10-24T12:37:59.186Z,20.10
2022-10-24T12:40:47.585Z,20.02
2022-10-24T12:43:16.949Z,20.52
2022-10-24T12:45:43.505Z,20.87
2022-10-24T12:48:26.313Z,20.45
2022-10-24T12:51:22.113Z,20.15
2022-10-24T12:54:02.961Z,20.06
2022-10-24T12:56:31.165Z,20.71
2022-10-24T12:59:21.152Z,20.63
2022-10-24T13:01:49.489Z,20.48
2022-10-24T13:05:04.276Z,19.94
2022-10-24T13:08:12.556Z,19.69
2022-10-24T13:11:08.555Z,19.85
2022-10-24T13:13:54.981Z,19.95
2022-10-24T13:16:40.037Z,20.16
2022-10-24T13:19:06.539Z,19.64
2022-10-24T13:21:52.225Z,20.29
2022-10-24T13:24:19.953Z,20.36
2022-10-24T13:26:58.249Z,20.52
2022-10-24T13:29:27.831Z,20.43
2022-10-24T13:32:18.660Z,20.99
2022-10-24T13:34:50.299Z,20.81
2022-10-24T13:37:23.941Z,20.32
2022-10-24T13:39:54.795Z,19.97
2022-10-24T13:42:28.923Z,20.36
2022-10-24T13:45:03.416Z,20.71
2022-10-24T13:47:32.786Z,20.75
2022-10-24T13:49:59.330Z,20.13
2022-10-24T13:52:28.542Z,20.59
2022-10-24T13:55:18.407Z,20.51
2022-10-24T13:58:08.506Z,20.72
2022-10-24T14:00:38.376Z,21.47
2022-10-24T14:03:10.359Z,21.61
2022-10-24T14:05:48.161Z,21.39
2022-10-24T14:08:28.742Z,21.38
2022-10-24T14:10:56.022Z,21.25
2022-10-24T14:13:24.185Z,21.10
2022-10-24T14:15:54.350Z,20.96
2022-10-24T14:18:21.395Z,20.81
2022-10-24T14:20:54.673Z,20.80
2022-10-24T14:23:30.988Z,20.92
2022-10-24T14:26:16.019Z,20.63
2022-10-24T14:28:45.140Z,20.25
2022-10-24T14:31:24.745Z,20.49
2022-10-24T14:33:53.817Z,20.38
2022-10-24T14:36:23.352Z,20.44
2022-10-24T14:38:51.638Z,20.52
2022-10-24T14:41:32.315Z,20.58
2022-10-24T14:43:59.199Z,20.62
2022-10-24T14:46:40.121Z,20.86
2022-10-24T14:49:28.182Z,20.36
2022-10-24T14:52:16.290Z,19.86
2022-10-24T14:55:05.074Z,20.49
2022-10-24T14:57:33.486Z,19.82
2022-10-24T15:00:07.101Z,19.73
2022-10-24T15:02:42.191Z,20.17
2022-10-24T15:05:27.546Z,20.13
2022-10-24T15:08:22.075Z,20.74
2022-10-24T15:10:49.261Z,19.96
2022-10-24T15:13:21.608Z,20.55
2022-10-24T15:15:55.206Z,20.56
2022-10-24T15:18:32.998Z,20.58
2022-10-24T15:21:11.275Z,20.07
2022-10-24T15:23:45.805Z,20.57
2022-10-24T15:26:16.721Z,20.00
2022-10-24T15:28:47.836Z,20.51
2022-10-24T15:31:16.941Z,20.20
2022-10-24T15:33:43.913Z,20.12
2022-10-24T15:36:34.206Z,20.39
2022-10-24T15:39:03.734Z,19.59
2022-10-24T15:41:30.291Z,19.70
2022-10-24T15:43:57.272Z,19.74
2022-10-24T15:46:24.404Z,19.73
2022-10-24T15:48:51.002Z,19.26
2022-10-24T15:51:20.017Z,19.30
2022-10-24T15:53:47.571Z,19.07
2022-10-24T15:56:14.070Z,19.08
2022-10-24T15:58:40.692Z,18.62
2022-10-24T16:01:08.383Z,19.00
2022-10-24T16:03:35.370Z,19.00
2022-10-24T16:06:04.402Z,18.86
2022-10-24T16:08:31.243Z,18.82
2022-10-24T16:10:57.837Z,18.60
2022-10-24T16:13:24.401Z,18.71
2022-10-24T16:15:51.010Z,18.92
2022-10-24T16:18:17.568Z,18.72
2022-10-24T16:20:44.070Z,18.87
2022-10-24T16:23:11.543Z,18.98
2022-10-24T16:25:38.240Z,18.85
2022-10-24T16:28:07.419Z,18.89
2022-10-24T16:30:36.299Z,18.69
2022-10-24T16:33:03.094Z,18.43
2022-10-24T16:35:33.443Z,18.53
2022-10-24T16:38:01.037Z,18.29
2022-10-24T16:40:28.431Z,18.31
2022-10-24T16:42:56.759Z,18.49
2022-10-24T16:45:24.365Z,18.59
2022-10-24T16:47:50.962Z,18.70
2022-10-24T16:50:26.267Z,18.75
2022-10-24T16:52:54.066Z,18.70
2022-10-24T16:55:21.511Z,18.06
2022-10-24T16:57:48.465Z,18.16
2022-10-24T17:00:17.233Z,18.45
2022-10-24T17:02:49.395Z,17.76
2022-10-24T17:05:15.939Z,17.77
2022-10-24T17:07:43.324Z,17.64
2022-10-24T17:10:11.759Z,16.58
2022-10-24T17:12:42.016Z,17.69
2022-10-24T17:15:09.557Z,17.80
2022-10-24T17:17:36.212Z,18.38
2022-10-24T17:20:03.260Z,18.33
2022-10-24T17:22:30.058Z,18.50
2022-10-24T17:24:57.043Z,18.30
2022-10-24T17:27:23.611Z,18.26
2022-10-24T17:29:50.313Z,18.01
2022-10-24T17:32:17.203Z,18.11
2022-10-24T17:34:45.258Z,17.88
2022-10-24T17:37:48.720Z,17.56
2022-10-24T17:40:18.959Z,17.49
2022-10-24T17:42:47.980Z,17.48
2022-10-24T17:45:17.073Z,17.49
2022-10-24T17:47:43.967Z,17.81
2022-10-24T17:50:11.777Z,17.44
2022-10-24T17:52:43.419Z,17.89
2022-10-24T17:55:27.843Z,18.03
2022-10-24T17:58:05.154Z,18.06
2022-10-24T18:00:31.707Z,18.02
2022-10-24T18:03:01.319Z,18.14
2022-10-24T18:05:34.118Z,17.63
2022-10-24T18:08:00.648Z,17.79
2022-10-24T18:10:27.212Z,17.59
2022-10-24T18:12:53.818Z,17.47
2022-10-24T18:15:20.783Z,17.76
2022-10-24T18:17:47.995Z,17.79
2022-10-24T18:20:15.603Z,17.60
2022-10-24T18:22:43.500Z,17.90
2022-10-24T18:25:12.921Z,18.05
2022-10-24T18:27:39.451Z,17.72
2022-10-24T18:30:06.826Z,17.77
2022-10-24T18:32:34.162Z,16.73
2022-10-24T18:35:01.142Z,16.00
2022-10-24T18:37:27.875Z,16.31
2022-10-24T18:39:54.625Z,16.43
2022-10-24T18:42:33.327Z,16.62
2022-10-24T18:45:00.244Z,16.41
2022-10-24T18:47:27.329Z,16.76
2022-10-24T18:49:54.466Z,16.54
2022-10-24T18:52:40.993Z,16.00
2022-10-24T18:55:16.897Z,16.06
2022-10-24T18:57:43.823Z,16.05
2022-10-24T19:00:12.552Z,15.64
2022-10-24T19:02:43.410Z,15.94
2022-10-24T19:05:23.403Z,15.63
2022-10-24T19:07:50.853Z,15.32
2022-10-24T19:10:27.549Z,15.26
2022-10-24T19:12:54.449Z,15.00
2022-10-24T19:15:21.525Z,15.46
2022-10-24T19:17:48.690Z,15.59
2022-10-24T19:20:18.821Z,15.78
2022-10-24T19:22:46.086Z,15.70
2022-10-24T19:25:13.674Z,15.51
2022-10-24T19:27:40.510Z,15.24
2022-10-24T19:30:07.663Z,15.26
2022-10-24T19:32:34.202Z,15.21
2022-10-24T19:35:00.841Z,15.27
2022-10-24T19:37:27.386Z,15.00
2022-10-24T19:39:54.002Z,15.23
2022-10-24T19:42:20.480Z,14.93
2022-10-24T19:47:20.964Z,15.17
2022-10-24T19:49:47.821Z,15.04
2022-10-24T19:52:14.448Z,15.34
2022-10-24T19:54:40.933Z,15.69
2022-10-24T19:57:07.433Z,15.44
2022-10-24T19:59:35.922Z,15.08
2022-10-24T20:02:03.894Z,14.97
2022-10-24T20:04:31.117Z,14.96
2022-10-24T20:06:57.597Z,14.89
2022-10-24T20:09:24.223Z,14.94
2022-10-24T20:11:50.674Z,14.76
2022-10-24T20:14:17.221Z,15.15
2022-10-24T20:16:46.512Z,15.26
2022-10-24T20:19:12.959Z,15.60
2022-10-24T20:21:39.501Z,15.78
2022-10-24T20:24:06.418Z,15.73
2022-10-24T20:26:33.240Z,15.87
2022-10-24T20:28:59.721Z,16.27
2022-10-24T20:31:34.988Z,15.82
2022-10-24T20:34:07.122Z,15.68
2022-10-24T20:36:35.664Z,15.61
2022-10-24T20:39:03.449Z,15.48
2022-10-24T20:41:30.006Z,15.23
2022-10-24T20:43:56.619Z,15.44
2022-10-24T20:46:23.499Z,15.56
2022-10-24T20:48:50.519Z,14.91
2022-10-24T20:51:18.528Z,15.31
2022-10-24T20:53:45.122Z,15.71
2022-10-24T20:56:13.631Z,16.23
2022-10-24T20:58:41.967Z,16.44
2022-10-24T21:01:17.065Z,16.27
2022-10-24T21:03:44.033Z,16.38
2022-10-24T21:06:21.587Z,16.36
2022-10-24T21:08:53.913Z,15.14
2022-10-24T21:11:25.148Z,14.97
2022-10-24T21:13:53.270Z,15.69
2022-10-24T21:16:20.114Z,15.45
2022-10-24T21:18:46.626Z,15.35
2022-10-24T21:21:14.564Z,15.20
2022-10-24T21:23:41.343Z,15.65
2022-10-24T21:26:11.372Z,15.58
2022-10-24T21:28:37.956Z,15.25
2022-10-24T21:31:09.363Z,15.73
2022-10-24T21:33:36.736Z,15.82
2022-10-24T21:36:08.405Z,16.12
2022-10-24T21:38:35.146Z,15.94
2022-10-24T21:41:09.744Z,16.44
2022-10-24T21:43:38.845Z,16.57
2022-10-24T21:46:12.677Z,16.93
2022-10-24T21:48:40.618Z,16.65
2022-10-24T21:51:12.656Z,16.91
2022-10-24T21:53:41.176Z,16.44
2022-10-24T21:56:09.888Z,17.03
2022-10-24T21:58:36.739Z,16.65
2022-10-24T22:01:13.832Z,16.70
2022-10-24T22:03:42.093Z,16.48
2022-10-24T22:17:12.555Z,16.10
2022-10-24T22:19:38.985Z,16.26
2022-10-24T22:22:05.433Z,16.62
2022-10-24T22:24:31.939Z,16.75
2022-10-24T22:26:58.359Z,16.71
2022-10-24T22:29:24.880Z,16.05
2022-10-24T22:31:52.938Z,15.64
2022-10-24T22:34:22.926Z,15.25
2022-10-24T22:36:52.440Z,15.64
2022-10-24T22:39:21.447Z,15.65
2022-10-24T22:41:48.578Z,15.62
2022-10-24T22:44:17.186Z,16.07
2022-10-24T22:46:55.819Z,16.04
2022-10-24T22:49:44.040Z,16.10
2022-10-24T22:52:11.460Z,15.68
2022-10-24T22:54:38.917Z,15.48
2022-10-24T22:57:05.914Z,15.68
2022-10-24T23:03:25.851Z,16.15
2022-10-24T23:06:00.136Z,15.81
2022-10-24T23:08:33.692Z,15.27
2022-10-24T23:11:00.555Z,15.61
2022-10-24T23:13:27.414Z,15.84
2022-10-24T23:15:54.649Z,15.83
2022-10-24T23:18:21.415Z,15.53
2022-10-24T23:21:03.704Z,15.60
2022-10-24T23:23:33.117Z,15.70
2022-10-24T23:26:12.824Z,15.54
2022-10-24T23:28:59.247Z,15.56
2022-10-24T23:31:25.951Z,15.55
2022-10-24T23:33:52.683Z,15.81
2022-10-24T23:36:25.039Z,15.06
2022-10-24T23:38:55.013Z,15.68
2022-10-24T23:41:21.735Z,15.67
2022-10-24T23:43:48.364Z,15.79
2022-10-24T23:46:34.205Z,15.47
2022-10-24T23:49:19.389Z,15.98
2022-10-24T23:52:17.805Z,15.56
2022-10-24T23:54:44.543Z,15.59
2022-10-24T23:57:15.952Z,15.33
2022-10-24T23:59:42.968Z,15.26
